sensor_id;sensor_type;location;lat;lon;timestamp;pressure;altitude;pressure_sealevel;temperature;humidity
37792;BME280;29527;55.766;37.570;2023-04-01T00:01:19;98408.84;;;3.37;72.30
37792;BME280;29527;55.766;37.570;2023-04-01T00:03:45;98407.78;;;3.39;71.88
37792;BME280;29527;55.766;37.570;2023-04-01T00:06:15;98418.16;;;3.42;71.86
37792;BME280;29527;55.766;37.570;2023-04-01T00:08:41;98415.88;;;3.38;71.33
37792;BME280;29527;55.766;37.570;2023-04-01T00:11:07;98411.72;;;3.34;71.11
37792;BME280;29527;55.766;37.570;2023-04-01T00:13:32;98407.63;;;3.29;71.46
37792;BME280;29527;55.766;37.570;2023-04-01T00:15:58;98415.56;;;3.29;72.04
37792;BME280;29527;55.766;37.570;2023-04-01T00:18:24;98407.41;;;3.33;72.13
37792;BME280;29527;55.766;37.570;2023-04-01T00:20:51;98400.88;;;3.25;71.62
37792;BME280;29527;55.766;37.570;2023-04-01T00:23:17;98409.78;;;3.24;71.44
37792;BME280;29527;55.766;37.570;2023-04-01T00:25:44;98405.53;;;3.22;71.90
37792;BME280;29527;55.766;37.570;2023-04-01T00:28:11;98401.34;;;3.19;71.77
37792;BME280;29527;55.766;37.570;2023-04-01T00:30:37;98401.34;;;3.19;71.83
37792;BME280;29527;55.766;37.570;2023-04-01T00:48:39;98380.22;;;3.30;71.80
37792;BME280;29527;55.766;37.570;2023-04-01T00:51:10;98399.91;;;3.26;71.77
37792;BME280;29527;55.766;37.570;2023-04-01T00:53:41;98398.22;;;3.25;71.68
37792;BME280;29527;55.766;37.570;2023-04-01T00:56:14;98401.59;;;3.27;71.84
37792;BME280;29527;55.766;37.570;2023-04-01T00:58:45;98388.38;;;3.27;71.88
37792;BME280;29527;55.766;37.570;2023-04-01T01:01:12;98379.09;;;3.22;72.01
37792;BME280;29527;55.766;37.570;2023-04-01T01:03:37;98383.31;;;3.24;72.03
37792;BME280;29527;55.766;37.570;2023-04-01T01:06:19;98385.03;;;3.37;72.45
37792;BME280;29527;55.766;37.570;2023-04-01T01:11:22;98387.50;;;3.40;70.83
37792;BME280;29527;55.766;37.570;2023-04-01T01:14:05;98383.25;;;3.37;71.34
37792;BME280;29527;55.766;37.570;2023-04-01T01:16:39;98390.06;;;3.28;71.91
37792;BME280;29527;55.766;37.570;2023-04-01T01:19:32;98387.91;;;3.34;72.35
37792;BME280;29527;55.766;37.570;2023-04-01T01:27:17;98397.69;;;3.33;72.10
37792;BME280;29527;55.766;37.570;2023-04-01T01:51:47;98397.22;;;3.39;72.34
37792;BME280;29527;55.766;37.570;2023-04-01T01:54:17;98402.41;;;3.41;72.06
37792;BME280;29527;55.766;37.570;2023-04-01T01:56:47;98395.28;;;3.41;72.55
37792;BME280;29527;55.766;37.570;2023-04-01T01:59:15;98403.97;;;3.43;72.32
37792;BME280;29527;55.766;37.570;2023-04-01T02:01:46;98406.38;;;3.47;71.67
37792;BME280;29527;55.766;37.570;2023-04-01T02:04:14;98397.72;;;3.44;71.79
37792;BME280;29527;55.766;37.570;2023-04-01T02:06:46;98396.66;;;3.47;71.78
37792;BME280;29527;55.766;37.570;2023-04-01T02:09:13;98398.44;;;3.47;71.20
37792;BME280;29527;55.766;37.570;2023-04-01T02:11:48;98403.41;;;3.51;72.22
37792;BME280;29527;55.766;37.570;2023-04-01T02:14:52;98409.19;;;3.56;72.69
37792;BME280;29527;55.766;37.570;2023-04-01T02:17:24;98407.56;;;3.67;71.97
37792;BME280;29527;55.766;37.570;2023-04-01T02:19:54;98409.34;;;3.66;72.14
37792;BME280;29527;55.766;37.570;2023-04-01T02:22:25;98403.00;;;3.69;71.92
37792;BME280;29527;55.766;37.570;2023-04-01T02:24:54;98400.44;;;3.67;71.47
37792;BME280;29527;55.766;37.570;2023-04-01T02:27:22;98407.19;;;3.71;70.63
37792;BME280;29527;55.766;37.570;2023-04-01T02:29:47;98397.47;;;3.72;70.49
37792;BME280;29527;55.766;37.570;2023-04-01T02:32:13;98412.16;;;3.76;70.37
37792;BME280;29527;55.766;37.570;2023-04-01T02:34:40;98409.50;;;3.76;69.97
37792;BME280;29527;55.766;37.570;2023-04-01T02:37:06;98403.38;;;3.76;70.54
37792;BME280;29527;55.766;37.570;2023-04-01T02:39:31;98412.78;;;3.80;70.29
37792;BME280;29527;55.766;37.570;2023-04-01T02:41:57;98410.94;;;3.80;70.03
37792;BME280;29527;55.766;37.570;2023-04-01T02:44:22;98390.72;;;3.68;69.87
37792;BME280;29527;55.766;37.570;2023-04-01T02:46:48;98417.44;;;3.76;69.92
37792;BME280;29527;55.766;37.570;2023-04-01T02:49:13;98407.19;;;3.71;70.03
37792;BME280;29527;55.766;37.570;2023-04-01T02:51:39;98407.81;;;3.75;69.31
37792;BME280;29527;55.766;37.570;2023-04-01T02:54:05;98418.88;;;3.69;69.94
37792;BME280;29527;55.766;37.570;2023-04-01T02:56:30;98425.84;;;3.70;70.60
37792;BME280;29527;55.766;37.570;2023-04-01T02:58:55;98408.53;;;3.66;70.38
37792;BME280;29527;55.766;37.570;2023-04-01T03:01:22;98410.34;;;3.77;70.63
37792;BME280;29527;55.766;37.570;2023-04-01T03:03:47;98380.81;;;3.58;69.82
37792;BME280;29527;55.766;37.570;2023-04-01T03:06:14;98421.78;;;3.77;69.95
37792;BME280;29527;55.766;37.570;2023-04-01T03:08:40;98422.75;;;3.76;69.73
37792;BME280;29527;55.766;37.570;2023-04-01T03:11:06;98416.47;;;3.77;69.61
37792;BME280;29527;55.766;37.570;2023-04-01T03:13:32;98419.84;;;3.79;69.37
37792;BME280;29527;55.766;37.570;2023-04-01T03:15:58;98431.53;;;3.77;69.33
37792;BME280;29527;55.766;37.570;2023-04-01T03:18:23;98429.00;;;3.75;69.07
37792;BME280;29527;55.766;37.570;2023-04-01T03:20:49;98430.91;;;3.73;69.88
37792;BME280;29527;55.766;37.570;2023-04-01T03:23:15;98425.50;;;3.75;69.90
37792;BME280;29527;55.766;37.570;2023-04-01T03:25:42;98443.81;;;3.78;70.40
37792;BME280;29527;55.766;37.570;2023-04-01T03:28:08;98440.22;;;3.79;70.03
37792;BME280;29527;55.766;37.570;2023-04-01T03:30:34;98410.53;;;3.62;69.34
37792;BME280;29527;55.766;37.570;2023-04-01T03:32:59;98439.25;;;3.80;69.44
37792;BME280;29527;55.766;37.570;2023-04-01T03:35:26;98442.97;;;3.77;69.70
37792;BME280;29527;55.766;37.570;2023-04-01T03:37:52;98435.34;;;3.72;69.77
37792;BME280;29527;55.766;37.570;2023-04-01T03:40:18;98443.91;;;3.76;69.84
37792;BME280;29527;55.766;37.570;2023-04-01T03:42:43;98443.59;;;3.81;69.96
37792;BME280;29527;55.766;37.570;2023-04-01T03:45:09;98446.34;;;3.79;69.83
37792;BME280;29527;55.766;37.570;2023-04-01T03:47:37;98453.31;;;3.80;69.94
37792;BME280;29527;55.766;37.570;2023-04-01T03:50:03;98457.66;;;3.81;69.77
37792;BME280;29527;55.766;37.570;2023-04-01T03:52:29;98425.56;;;3.62;70.36
37792;BME280;29527;55.766;37.570;2023-04-01T03:54:54;98460.19;;;3.83;70.33
37792;BME280;29527;55.766;37.570;2023-04-01T03:57:20;98460.19;;;3.83;70.44
37792;BME280;29527;55.766;37.570;2023-04-01T03:59:46;98464.19;;;3.88;70.23
37792;BME280;29527;55.766;37.570;2023-04-01T04:02:11;98478.25;;;3.89;69.97
37792;BME280;29527;55.766;37.570;2023-04-01T04:04:36;98461.47;;;3.77;69.92
37792;BME280;29527;55.766;37.570;2023-04-01T04:07:02;98467.03;;;3.85;70.33
37792;BME280;29527;55.766;37.570;2023-04-01T04:09:30;98485.72;;;3.95;70.53
37792;BME280;29527;55.766;37.570;2023-04-01T04:11:56;98471.91;;;3.92;70.18
37792;BME280;29527;55.766;37.570;2023-04-01T04:14:22;98479.47;;;3.96;70.15
37792;BME280;29527;55.766;37.570;2023-04-01T04:16:48;98480.34;;;3.97;70.01
37792;BME280;29527;55.766;37.570;2023-04-01T04:19:13;98461.75;;;3.85;70.64
37792;BME280;29527;55.766;37.570;2023-04-01T04:21:40;98480.84;;;4.02;69.99
37792;BME280;29527;55.766;37.570;2023-04-01T04:24:06;98486.13;;;4.02;70.06
37792;BME280;29527;55.766;37.570;2023-04-01T04:26:32;98490.22;;;4.06;69.84
37792;BME280;29527;55.766;37.570;2023-04-01T04:28:57;98496.78;;;4.13;70.01
37792;BME280;29527;55.766;37.570;2023-04-01T04:31:24;98493.03;;;4.16;69.78
37792;BME280;29527;55.766;37.570;2023-04-01T04:33:50;98497.38;;;4.17;69.28
37792;BME280;29527;55.766;37.570;2023-04-01T04:36:17;98493.16;;;4.14;69.04
37792;BME280;29527;55.766;37.570;2023-04-01T04:38:43;98490.63;;;4.13;69.48
37792;BME280;29527;55.766;37.570;2023-04-01T04:41:12;98493.31;;;4.24;68.97
37792;BME280;29527;55.766;37.570;2023-04-01T04:43:39;98497.75;;;4.24;69.15
37792;BME280;29527;55.766;37.570;2023-04-01T04:46:09;98493.66;;;4.31;69.30
37792;BME280;29527;55.766;37.570;2023-04-01T04:48:35;98493.56;;;4.33;69.07
37792;BME280;29527;55.766;37.570;2023-04-01T04:51:01;98460.41;;;4.15;69.15
37792;BME280;29527;55.766;37.570;2023-04-01T04:53:27;98469.69;;;4.21;68.40
37792;BME280;29527;55.766;37.570;2023-04-01T04:55:53;98512.03;;;4.45;68.55
37792;BME280;29527;55.766;37.570;2023-04-01T04:58:18;98515.63;;;4.44;68.04
37792;BME280;29527;55.766;37.570;2023-04-01T05:00:45;98519.97;;;4.45;68.05
37792;BME280;29527;55.766;37.570;2023-04-01T05:03:11;98526.00;;;4.48;67.95
37792;BME280;29527;55.766;37.570;2023-04-01T05:05:37;98490.28;;;4.29;68.49
37792;BME280;29527;55.766;37.570;2023-04-01T05:08:03;98525.75;;;4.51;67.94
37792;BME280;29527;55.766;37.570;2023-04-01T05:10:29;98528.91;;;4.56;67.49
37792;BME280;29527;55.766;37.570;2023-04-01T05:12:56;98524.09;;;4.61;68.07
37792;BME280;29527;55.766;37.570;2023-04-01T05:15:22;98526.38;;;4.66;67.97
37792;BME280;29527;55.766;37.570;2023-04-01T05:17:47;98522.78;;;4.67;68.01
37792;BME280;29527;55.766;37.570;2023-04-01T05:20:13;98537.13;;;4.76;67.64
37792;BME280;29527;55.766;37.570;2023-04-01T05:22:39;98538.94;;;4.75;67.50
37792;BME280;29527;55.766;37.570;2023-04-01T05:25:05;98532.78;;;4.74;67.94
37792;BME280;29527;55.766;37.570;2023-04-01T05:27:31;98530.03;;;4.76;67.92
37792;BME280;29527;55.766;37.570;2023-04-01T05:29:57;98523.38;;;4.82;68.20
37792;BME280;29527;55.766;37.570;2023-04-01T05:32:22;98534.00;;;4.93;67.58
37792;BME280;29527;55.766;37.570;2023-04-01T05:34:50;98539.56;;;5.01;67.28
37792;BME280;29527;55.766;37.570;2023-04-01T05:37:16;98535.94;;;5.02;67.13
37792;BME280;29527;55.766;37.570;2023-04-01T05:39:42;98535.47;;;5.09;66.83
37792;BME280;29527;55.766;37.570;2023-04-01T05:42:07;98536.78;;;5.14;67.16
37792;BME280;29527;55.766;37.570;2023-04-01T05:44:34;98533.88;;;5.17;66.64
37792;BME280;29527;55.766;37.570;2023-04-01T05:46:59;98535.47;;;5.20;66.52
37792;BME280;29527;55.766;37.570;2023-04-01T05:49:25;98544.75;;;5.26;66.67
37792;BME280;29527;55.766;37.570;2023-04-01T05:51:51;98548.22;;;5.26;66.25
37792;BME280;29527;55.766;37.570;2023-04-01T05:54:17;98534.75;;;5.18;66.57
37792;BME280;29527;55.766;37.570;2023-04-01T05:56:42;98522.69;;;5.14;66.46
37792;BME280;29527;55.766;37.570;2023-04-01T05:59:10;98555.72;;;5.32;66.46
37792;BME280;29527;55.766;37.570;2023-04-01T06:01:35;98545.47;;;5.28;66.19
37792;BME280;29527;55.766;37.570;2023-04-01T06:04:01;98564.88;;;5.40;66.19
37792;BME280;29527;55.766;37.570;2023-04-01T06:06:28;98559.53;;;5.51;65.75
37792;BME280;29527;55.766;37.570;2023-04-01T06:08:56;98555.56;;;5.68;65.99
37792;BME280;29527;55.766;37.570;2023-04-01T06:11:35;98555.63;;;5.89;64.99
37792;BME280;29527;55.766;37.570;2023-04-01T06:41:58;98573.41;;;6.75;60.54
37792;BME280;29527;55.766;37.570;2023-04-01T06:50:26;98564.50;;;7.17;61.34
37792;BME280;29527;55.766;37.570;2023-04-01T06:55:24;98579.31;;;7.41;59.56
37792;BME280;29527;55.766;37.570;2023-04-01T06:57:55;98583.13;;;7.49;58.87
37792;BME280;29527;55.766;37.570;2023-04-01T07:00:30;98602.06;;;7.55;58.56
37792;BME280;29527;55.766;37.570;2023-04-01T07:05:41;98567.84;;;7.51;58.04
37792;BME280;29527;55.766;37.570;2023-04-01T07:08:14;98595.16;;;7.84;58.18
37792;BME280;29527;55.766;37.570;2023-04-01T07:13:18;98591.13;;;8.48;56.67
37792;BME280;29527;55.766;37.570;2023-04-01T07:15:56;98577.66;;;8.80;55.88
37792;BME280;29527;55.766;37.570;2023-04-01T07:18:30;98582.34;;;9.05;54.37
37792;BME280;29527;55.766;37.570;2023-04-01T07:20:58;98590.63;;;9.12;53.71
37792;BME280;29527;55.766;37.570;2023-04-01T07:23:36;98595.63;;;9.35;54.46
37792;BME280;29527;55.766;37.570;2023-04-01T07:26:16;98589.84;;;9.96;53.26
37792;BME280;29527;55.766;37.570;2023-04-01T07:28:42;98590.09;;;10.75;50.81
37792;BME280;29527;55.766;37.570;2023-04-01T07:33:44;98599.25;;;11.95;47.44
37792;BME280;29527;55.766;37.570;2023-04-01T07:36:21;98569.66;;;12.13;46.84
37792;BME280;29527;55.766;37.570;2023-04-01T07:41:51;98594.97;;;13.34;46.10
37792;BME280;29527;55.766;37.570;2023-04-01T07:52:51;98604.53;;;13.45;44.28
37792;BME280;29527;55.766;37.570;2023-04-01T07:55:42;98593.69;;;13.70;44.12
37792;BME280;29527;55.766;37.570;2023-04-01T07:59:18;98612.69;;;13.69;43.19
37792;BME280;29527;55.766;37.570;2023-04-01T08:01:18;98617.72;;;13.72;42.42
37792;BME280;29527;55.766;37.570;2023-04-01T08:07:03;98623.97;;;14.04;42.84
37792;BME280;29527;55.766;37.570;2023-04-01T08:22:38;98619.06;;;13.76;40.16
37792;BME280;29527;55.766;37.570;2023-04-01T08:25:09;98624.06;;;14.42;41.98
37792;BME280;29527;55.766;37.570;2023-04-01T08:27:45;98619.47;;;14.28;39.48
37792;BME280;29527;55.766;37.570;2023-04-01T08:30:28;98618.50;;;14.67;39.48
37792;BME280;29527;55.766;37.570;2023-04-01T08:35:53;98618.41;;;15.82;36.15
37792;BME280;29527;55.766;37.570;2023-04-01T08:38:27;98616.84;;;16.03;35.81
37792;BME280;29527;55.766;37.570;2023-04-01T08:41:00;98617.94;;;15.78;34.51
37792;BME280;29527;55.766;37.570;2023-04-01T08:49:38;98633.88;;;14.35;37.94
37792;BME280;29527;55.766;37.570;2023-04-01T08:52:32;98632.13;;;13.87;39.50
37792;BME280;29527;55.766;37.570;2023-04-01T09:00:32;98638.13;;;13.49;40.19
37792;BME280;29527;55.766;37.570;2023-04-01T09:14:17;98648.13;;;12.06;38.85
37792;BME280;29527;55.766;37.570;2023-04-01T09:27:57;98650.97;;;11.70;40.80
37792;BME280;29527;55.766;37.570;2023-04-01T09:35:55;98661.91;;;11.24;41.72
37792;BME280;29527;55.766;37.570;2023-04-01T09:38:54;98668.59;;;11.20;42.55
37792;BME280;29527;55.766;37.570;2023-04-01T09:44:57;98675.50;;;11.04;42.84
37792;BME280;29527;55.766;37.570;2023-04-01T09:49:50;98673.94;;;11.20;42.77
37792;BME280;29527;55.766;37.570;2023-04-01T09:52:38;98627.56;;;10.93;42.43
37792;BME280;29527;55.766;37.570;2023-04-01T10:00:39;98687.94;;;11.58;41.66
37792;BME280;29527;55.766;37.570;2023-04-01T10:09:05;98695.41;;;11.81;40.75
37792;BME280;29527;55.766;37.570;2023-04-01T10:48:14;98710.78;;;11.18;40.57
37792;BME280;29527;55.766;37.570;2023-04-01T11:08:48;98721.41;;;10.91;41.57
37792;BME280;29527;55.766;37.570;2023-04-01T11:33:34;98729.75;;;10.70;41.12
37792;BME280;29527;55.766;37.570;2023-04-01T11:44:57;98724.00;;;11.38;39.98
37792;BME280;29527;55.766;37.570;2023-04-01T11:47:48;98726.84;;;11.62;39.54
37792;BME280;29527;55.766;37.570;2023-04-01T11:50:24;98734.84;;;11.89;38.67
37792;BME280;29527;55.766;37.570;2023-04-01T11:53:22;98738.19;;;12.09;38.40
37792;BME280;29527;55.766;37.570;2023-04-01T11:55:56;98731.00;;;12.18;37.75
37792;BME280;29527;55.766;37.570;2023-04-01T11:58:44;98707.81;;;12.09;38.07
37792;BME280;29527;55.766;37.570;2023-04-01T12:01:22;98730.59;;;12.39;37.65
37792;BME280;29527;55.766;37.570;2023-04-01T12:12:50;98749.78;;;12.61;38.55
37792;BME280;29527;55.766;37.570;2023-04-01T12:15:44;98721.56;;;12.57;38.32
37792;BME280;29527;55.766;37.570;2023-04-01T12:35:10;98739.38;;;12.58;37.50
37792;BME280;29527;55.766;37.570;2023-04-01T12:42:36;98740.19;;;12.58;38.10
37792;BME280;29527;55.766;37.570;2023-04-01T12:45:28;98700.53;;;12.35;38.38
37792;BME280;29527;55.766;37.570;2023-04-01T12:53:45;98754.56;;;12.41;37.16
37792;BME280;29527;55.766;37.570;2023-04-01T12:59:35;98762.13;;;12.45;37.30
37792;BME280;29527;55.766;37.570;2023-04-01T13:02:13;98769.84;;;12.40;37.12
37792;BME280;29527;55.766;37.570;2023-04-01T13:16:24;98771.59;;;11.97;36.79
37792;BME280;29527;55.766;37.570;2023-04-01T13:19:09;98777.44;;;12.10;36.95
37792;BME280;29527;55.766;37.570;2023-04-01T13:25:06;98739.81;;;11.75;36.16
37792;BME280;29527;55.766;37.570;2023-04-01T13:27:41;98770.44;;;11.73;36.25
37792;BME280;29527;55.766;37.570;2023-04-01T13:43:23;98795.81;;;11.16;37.23
37792;BME280;29527;55.766;37.570;2023-04-01T13:48:29;98797.78;;;10.96;37.91
37792;BME280;29527;55.766;37.570;2023-04-01T13:51:32;98779.13;;;10.86;38.71
37792;BME280;29527;55.766;37.570;2023-04-01T13:57:11;98812.63;;;10.90;40.53
37792;BME280;29527;55.766;37.570;2023-04-01T13:59:48;98811.19;;;10.68;41.43
37792;BME280;29527;55.766;37.570;2023-04-01T14:02:28;98819.44;;;10.56;42.23
37792;BME280;29527;55.766;37.570;2023-04-01T14:32:38;98837.94;;;9.92;44.30
37792;BME280;29527;55.766;37.570;2023-04-01T14:35:38;98843.00;;;9.85;44.88
37792;BME280;29527;55.766;37.570;2023-04-01T14:43:53;98853.19;;;9.72;45.43
37792;BME280;29527;55.766;37.570;2023-04-01T14:49:39;98860.78;;;9.67;46.06
37792;BME280;29527;55.766;37.570;2023-04-01T14:52:22;98836.75;;;9.47;46.94
37792;BME280;29527;55.766;37.570;2023-04-01T14:54:50;98863.47;;;9.47;47.89
37792;BME280;29527;55.766;37.570;2023-04-01T14:57:28;98872.19;;;9.49;48.01
37792;BME280;29527;55.766;37.570;2023-04-01T15:02:57;98875.66;;;9.40;49.22
37792;BME280;29527;55.766;37.570;2023-04-01T15:05:49;98861.47;;;9.29;49.75
37792;BME280;29527;55.766;37.570;2023-04-01T15:08:33;98883.97;;;9.37;50.03
37792;BME280;29527;55.766;37.570;2023-04-01T15:11:16;98885.22;;;9.32;50.58
37792;BME280;29527;55.766;37.570;2023-04-01T15:19:16;98892.41;;;9.22;52.84
37792;BME280;29527;55.766;37.570;2023-04-01T15:25:01;98895.59;;;9.16;53.00
37792;BME280;29527;55.766;37.570;2023-04-01T15:27:37;98894.72;;;8.96;54.39
37792;BME280;29527;55.766;37.570;2023-04-01T15:30:32;98903.69;;;8.85;55.00
37792;BME280;29527;55.766;37.570;2023-04-01T15:33:09;98872.84;;;8.61;55.45
37792;BME280;29527;55.766;37.570;2023-04-01T15:41:18;98912.81;;;8.82;54.92
37792;BME280;29527;55.766;37.570;2023-04-01T15:43:49;98919.09;;;8.71;55.88
37792;BME280;29527;55.766;37.570;2023-04-01T16:00:29;98933.66;;;8.67;56.39
37792;BME280;29527;55.766;37.570;2023-04-01T16:11:11;98953.03;;;8.59;57.55
37792;BME280;29527;55.766;37.570;2023-04-01T16:24:02;98954.47;;;8.64;58.68
37792;BME280;29527;55.766;37.570;2023-04-01T16:34:30;98968.50;;;8.44;59.09
37792;BME280;29527;55.766;37.570;2023-04-01T16:37:21;98972.41;;;8.40;59.24
37792;BME280;29527;55.766;37.570;2023-04-01T16:40:11;98974.34;;;8.38;59.35
37792;BME280;29527;55.766;37.570;2023-04-01T16:42:49;98978.63;;;8.29;59.67
37792;BME280;29527;55.766;37.570;2023-04-01T16:47:55;98987.88;;;8.25;59.92
37792;BME280;29527;55.766;37.570;2023-04-01T16:50:29;98986.34;;;8.23;60.18
37792;BME280;29527;55.766;37.570;2023-04-01T16:58:36;98988.03;;;8.24;59.87
37792;BME280;29527;55.766;37.570;2023-04-01T17:01:24;98984.13;;;8.28;59.97
37792;BME280;29527;55.766;37.570;2023-04-01T17:03:58;98977.16;;;8.15;60.37
37792;BME280;29527;55.766;37.570;2023-04-01T17:06:32;98997.97;;;8.22;60.35
37792;BME280;29527;55.766;37.570;2023-04-01T17:14:50;99000.66;;;8.22;60.57
37792;BME280;29527;55.766;37.570;2023-04-01T17:17:31;99003.06;;;8.25;60.36
37792;BME280;29527;55.766;37.570;2023-04-01T17:22:49;98997.72;;;8.25;61.13
37792;BME280;29527;55.766;37.570;2023-04-01T17:25:48;99008.38;;;8.25;61.04
37792;BME280;29527;55.766;37.570;2023-04-01T17:31:06;99001.63;;;8.21;61.37
37792;BME280;29527;55.766;37.570;2023-04-01T17:36:36;99006.44;;;8.27;61.35
37792;BME280;29527;55.766;37.570;2023-04-01T17:39:16;99006.06;;;8.53;59.33
37792;BME280;29527;55.766;37.570;2023-04-01T17:42:09;99007.78;;;8.42;60.58
37792;BME280;29527;55.766;37.570;2023-04-01T17:44:59;99010.97;;;8.36;60.64
37792;BME280;29527;55.766;37.570;2023-04-01T17:58:29;99022.34;;;8.17;61.54
37792;BME280;29527;55.766;37.570;2023-04-01T18:09:40;99029.13;;;8.21;61.58
37792;BME280;29527;55.766;37.570;2023-04-01T18:12:17;99027.25;;;8.12;61.85
37792;BME280;29527;55.766;37.570;2023-04-01T18:20:41;99037.66;;;8.15;61.72
37792;BME280;29527;55.766;37.570;2023-04-01T18:23:35;99037.13;;;8.21;61.14
37792;BME280;29527;55.766;37.570;2023-04-01T18:26:05;99028.13;;;8.01;61.73
37792;BME280;29527;55.766;37.570;2023-04-01T18:28:38;99053.56;;;8.05;61.89
37792;BME280;29527;55.766;37.570;2023-04-01T18:31:15;99048.34;;;8.03;62.25
37792;BME280;29527;55.766;37.570;2023-04-01T18:39:17;99061.03;;;8.11;62.55
37792;BME280;29527;55.766;37.570;2023-04-01T18:41:51;99063.00;;;8.09;62.47
37792;BME280;29527;55.766;37.570;2023-04-01T18:44:43;99059.69;;;8.17;62.26
37792;BME280;29527;55.766;37.570;2023-04-01T18:52:52;99075.72;;;8.05;62.84
37792;BME280;29527;55.766;37.570;2023-04-01T18:55:29;99081.19;;;8.04;62.86
37792;BME280;29527;55.766;37.570;2023-04-01T18:58:11;99078.25;;;8.07;62.76
37792;BME280;29527;55.766;37.570;2023-04-01T19:01:23;99071.50;;;8.03;62.77
37792;BME280;29527;55.766;37.570;2023-04-01T19:09:31;99075.00;;;8.03;62.86
37792;BME280;29527;55.766;37.570;2023-04-01T19:17:58;99089.75;;;8.08;63.21
37792;BME280;29527;55.766;37.570;2023-04-01T19:20:38;99082.16;;;8.03;63.40
37792;BME280;29527;55.766;37.570;2023-04-01T19:26:00;99086.63;;;8.02;63.50
37792;BME280;29527;55.766;37.570;2023-04-01T19:28:47;99086.38;;;8.05;63.49
37792;BME280;29527;55.766;37.570;2023-04-01T19:31:32;99095.94;;;8.08;63.63
37792;BME280;29527;55.766;37.570;2023-04-01T19:37:18;99104.66;;;8.10;63.80
37792;BME280;29527;55.766;37.570;2023-04-01T19:40:28;99106.00;;;8.16;63.17
37792;BME280;29527;55.766;37.570;2023-04-01T19:46:39;99103.22;;;8.06;64.14
37792;BME280;29527;55.766;37.570;2023-04-01T19:57:24;99106.97;;;8.15;64.54
37792;BME280;29527;55.766;37.570;2023-04-01T20:08:32;99116.50;;;8.17;64.21
37792;BME280;29527;55.766;37.570;2023-04-01T20:16:50;99109.22;;;8.19;64.73
37792;BME280;29527;55.766;37.570;2023-04-01T20:19:44;99118.34;;;8.17;64.93
37792;BME280;29527;55.766;37.570;2023-04-01T20:25:16;99105.91;;;8.06;65.12
37792;BME280;29527;55.766;37.570;2023-04-01T20:36:11;99111.59;;;8.13;65.71
37792;BME280;29527;55.766;37.570;2023-04-01T20:38:58;99111.31;;;8.16;65.28
37792;BME280;29527;55.766;37.570;2023-04-01T20:41:39;99108.19;;;8.11;65.26
37792;BME280;29527;55.766;37.570;2023-04-01T20:44:21;99113.13;;;8.15;65.42
37792;BME280;29527;55.766;37.570;2023-04-01T20:47:12;99117.63;;;8.15;65.61
37792;BME280;29527;55.766;37.570;2023-04-01T20:52:43;99114.09;;;8.14;65.29
37792;BME280;29527;55.766;37.570;2023-04-01T21:00:37;99116.66;;;8.16;65.70
37792;BME280;29527;55.766;37.570;2023-04-01T21:06:10;99129.63;;;8.21;65.83
37792;BME280;29527;55.766;37.570;2023-04-01T21:20:23;99128.94;;;8.40;65.11
37792;BME280;29527;55.766;37.570;2023-04-01T21:42:28;99119.41;;;8.26;65.29
37792;BME280;29527;55.766;37.570;2023-04-01T21:57:07;99151.94;;;8.52;65.09
37792;BME280;29527;55.766;37.570;2023-04-01T22:05:30;99163.34;;;8.54;65.32
37792;BME280;29527;55.766;37.570;2023-04-01T22:13:07;99158.34;;;8.61;65.06
37792;BME280;29527;55.766;37.570;2023-04-01T22:27:21;99148.72;;;8.70;65.16
37792;BME280;29527;55.766;37.570;2023-04-01T22:32:33;99148.28;;;8.65;65.52
37792;BME280;29527;55.766;37.570;2023-04-01T22:38:10;99156.28;;;8.65;65.63
37792;BME280;29527;55.766;37.570;2023-04-01T22:43:39;99163.41;;;8.75;65.38
37792;BME280;29527;55.766;37.570;2023-04-01T22:51:57;99167.78;;;8.65;65.38
37792;BME280;29527;55.766;37.570;2023-04-01T22:54:29;99172.41;;;8.63;65.67
37792;BME280;29527;55.766;37.570;2023-04-01T22:57:04;99155.75;;;8.50;65.55
37792;BME280;29527;55.766;37.570;2023-04-01T22:59:54;99166.19;;;8.74;65.24
37792;BME280;29527;55.766;37.570;2023-04-01T23:02:29;99155.59;;;8.51;65.90
37792;BME280;29527;55.766;37.570;2023-04-01T23:04:59;99169.28;;;8.58;66.22
37792;BME280;29527;55.766;37.570;2023-04-01T23:13:10;99141.56;;;8.38;67.59
37792;BME280;29527;55.766;37.570;2023-04-01T23:15:38;99166.88;;;8.43;68.15
37792;BME280;29527;55.766;37.570;2023-04-01T23:20:59;99173.66;;;8.47;68.93
37792;BME280;29527;55.766;37.570;2023-04-01T23:28:55;99167.72;;;8.44;69.54
37792;BME280;29527;55.766;37.570;2023-04-01T23:33:54;99176.69;;;8.43;69.62
37792;BME280;29527;55.766;37.570;2023-04-01T23:36:21;99139.44;;;8.20;69.65
37792;BME280;29527;55.766;37.570;2023-04-01T23:38:48;99174.16;;;8.41;69.79
37792;BME280;29527;55.766;37.570;2023-04-01T23:41:27;99174.03;;;8.43;69.63
37792;BME280;29527;55.766;37.570;2023-04-01T23:44:02;99180.09;;;8.45;69.96
37792;BME280;29527;55.766;37.570;2023-04-01T23:46:30;99189.94;;;8.44;69.58
37792;BME280;29527;55.766;37.570;2023-04-01T23:48:57;99184.25;;;8.38;69.48
37792;BME280;29527;55.766;37.570;2023-04-01T23:51:25;99193.06;;;8.38;69.91
37792;BME280;29527;55.766;37.570;2023-04-01T23:56:54;99171.63;;;8.40;69.75
37792;BME280;29527;55.766;37.570;2023-04-01T23:59:27;99172.34;;;8.42;69.63
